Hlavní strana
METAR-TAF:

METAR-TAF

Letiště :

Rabat, Maroko

zeměpisná šířka: 34-03N, zeměpisná délka: 006-46W, výška: 84 m

Aktuální stav počasí

Zpráva byla vytvořena před 19 minutami, v 02:00 UTC
Jižní vítr 3 kt
Teplota 11°C
Vlhkost vzduchu 100%
Tlak 1017 hPa
Viditelnost: 6000 m

METAR: GMME 180200Z 17003KT 6000 NSC 11/11 Q1017 NOSIG

Čas: 03:19 (02:19 UTC)

Předpověď počasí

Zpráva byla vytvořena před 3 hodinami a 19 minutami, v 23:00 UTC
Předpověď platná od 18 v 00 UTC do 19 v 06 UTC
Jižní vítr 5 kt
Viditelnost: 6000 m
Dočasný
od 18 v 08 UTC do 18 v 12 UTC
Severozápadní vítr 10 kt

TAF: GMME 172300Z 1800/1906 18005KT 6000 NSC TEMPO 1808/1812 32010KT

Stav a předpovědi počasí z více než 4 000 letišť (zprávy METAR a TAF).

Červené a žluté tečky na mapě představují dostupné meteorologické stanice.

Když kurzor umístíte na tečku, zobrazí se název stanice.

Pak kliknutím zobrazíte stav a předpověď počasí.

Chcete-li změnit mapu, kliknutím na zelené tlačítko se znaménkem +mapu přiblížíte, kliknutím na zelené tlačítko se znaménkem – mapu oddálíte a kliknutím na zelené šipky přejdete na sousední mapy.


METAR-TAF: